createdAt,value
2022-11-22T00:03:30.805Z,3.35
2022-11-22T00:09:01.864Z,3.35
2022-11-22T00:14:33.068Z,2.80
2022-11-22T00:20:06.131Z,2.70
2022-11-22T00:25:37.023Z,3.33
2022-11-22T00:31:07.958Z,3.22
2022-11-22T00:36:39.286Z,3.03
2022-11-22T00:42:11.172Z,3.42
2022-11-22T00:47:42.274Z,3.40
2022-11-22T00:53:13.358Z,3.28
2022-11-22T00:58:44.623Z,2.95
2022-11-22T01:04:15.568Z,3.13
2022-11-22T01:09:46.614Z,3.35
2022-11-22T01:15:18.240Z,3.53
2022-11-22T01:20:49.447Z,3.30
2022-11-22T01:26:20.645Z,3.65
2022-11-22T01:31:51.727Z,3.28
2022-11-22T01:37:23.261Z,3.28
2022-11-22T01:42:59.933Z,3.30
2022-11-22T01:48:56.436Z,3.28
2022-11-22T01:54:30.531Z,3.08
2022-11-22T02:00:06.668Z,3.33
2022-11-22T02:05:37.977Z,2.75
2022-11-22T02:11:10.100Z,2.65
2022-11-22T02:16:42.160Z,3.22
2022-11-22T02:22:34.332Z,3.00
2022-11-22T02:28:05.655Z,2.50
2022-11-22T02:33:36.887Z,2.72
2022-11-22T02:39:10.191Z,2.70
2022-11-22T02:44:41.839Z,2.73
2022-11-22T02:50:12.954Z,2.53
2022-11-22T02:55:44.152Z,2.10
2022-11-22T03:01:15.410Z,3.10
2022-11-22T03:06:46.507Z,2.67
2022-11-22T03:12:17.818Z,2.10
2022-11-22T03:17:49.267Z,2.92
2022-11-22T03:23:20.177Z,2.78
2022-11-22T03:28:51.485Z,2.20
2022-11-22T03:34:22.615Z,2.20
2022-11-22T03:39:53.963Z,2.70
2022-11-22T03:45:25.170Z,2.60
2022-11-22T03:51:04.821Z,2.33
2022-11-22T03:56:35.970Z,2.33
2022-11-22T04:02:07.214Z,2.30
2022-11-22T04:07:38.525Z,2.25
2022-11-22T04:13:09.930Z,2.40
2022-11-22T04:18:41.180Z,2.53
2022-11-22T04:24:31.137Z,2.33
2022-11-22T04:30:02.805Z,3.03
2022-11-22T04:35:33.976Z,3.03
2022-11-22T04:41:04.923Z,2.83
2022-11-22T04:46:36.101Z,2.92
2022-11-22T04:52:26.257Z,2.50
2022-11-22T04:57:59.908Z,3.28
2022-11-22T05:03:31.258Z,2.78
2022-11-22T05:09:02.414Z,2.85
2022-11-22T05:14:33.708Z,3.05
2022-11-22T05:20:09.455Z,3.28
2022-11-22T05:25:42.132Z,2.90
2022-11-22T05:31:16.780Z,3.65
2022-11-22T05:36:47.756Z,3.28
2022-11-22T05:42:19.463Z,3.53
2022-11-22T05:47:50.433Z,3.53
2022-11-22T05:53:21.738Z,3.47
2022-11-22T05:58:53.645Z,3.67
2022-11-22T06:04:25.195Z,3.55
2022-11-22T06:09:56.344Z,3.92
2022-11-22T06:15:27.552Z,3.65
2022-11-22T06:21:04.218Z,4.15
2022-11-22T06:26:39.262Z,3.70
2022-11-22T06:32:10.707Z,3.83
2022-11-22T06:37:41.748Z,4.07
2022-11-22T06:43:12.968Z,3.58
2022-11-22T06:48:44.366Z,4.45
2022-11-22T06:54:15.631Z,3.60
2022-11-22T06:59:46.986Z,4.53
2022-11-22T07:05:25.714Z,4.10
2022-11-22T07:11:05.662Z,3.85
2022-11-22T07:16:37.968Z,3.70
2022-11-22T07:22:09.472Z,3.92
2022-11-22T07:27:40.414Z,3.67
2022-11-22T07:33:11.735Z,3.85
2022-11-22T07:38:43.197Z,4.18
2022-11-22T07:44:14.083Z,4.38
2022-11-22T07:49:45.487Z,4.10
2022-11-22T07:55:16.921Z,4.28
2022-11-22T08:00:47.977Z,4.13
2022-11-22T08:06:19.216Z,4.30
2022-11-22T08:11:50.413Z,4.18
2022-11-22T08:17:21.702Z,3.70
2022-11-22T08:22:53.099Z,3.63
2022-11-22T08:28:24.320Z,3.75
2022-11-22T08:33:55.429Z,3.92
2022-11-22T08:39:26.442Z,4.13
2022-11-22T08:44:57.765Z,4.05
2022-11-22T08:50:29.164Z,3.67
2022-11-22T08:56:01.534Z,3.72
2022-11-22T09:01:32.966Z,4.18
2022-11-22T09:12:56.831Z,4.10
2022-11-22T09:18:27.798Z,4.13
2022-11-22T09:23:59.060Z,3.85
2022-11-22T09:29:30.573Z,3.95
2022-11-22T09:35:01.708Z,4.22
2022-11-22T09:40:32.803Z,4.32
2022-11-22T09:46:23.251Z,4.10
2022-11-22T09:52:03.085Z,3.67
2022-11-22T09:57:38.981Z,4.25
2022-11-22T10:03:53.539Z,4.13
2022-11-22T10:09:33.923Z,4.25
2022-11-22T10:15:23.611Z,4.35
2022-11-22T10:20:54.410Z,3.85
2022-11-22T10:26:28.045Z,4.28
2022-11-22T10:32:11.585Z,4.10
2022-11-22T10:37:48.589Z,4.70
2022-11-22T10:43:37.418Z,4.85
2022-11-22T10:49:46.405Z,4.20
2022-11-22T10:55:25.886Z,6.20
2022-11-22T11:01:20.698Z,4.25
2022-11-22T11:12:47.503Z,3.80
2022-11-22T11:18:23.001Z,3.75
2022-11-22T11:23:54.470Z,3.58
2022-11-22T11:29:37.690Z,4.40
2022-11-22T11:35:14.735Z,3.72
2022-11-22T11:40:45.838Z,3.80
2022-11-22T11:46:41.402Z,3.95
2022-11-22T11:52:19.687Z,3.67
2022-11-22T11:57:52.572Z,3.70
2022-11-22T12:03:25.570Z,3.87
2022-11-22T12:08:58.130Z,3.97
2022-11-22T12:14:48.814Z,3.88
2022-11-22T12:20:25.693Z,4.20
2022-11-22T12:25:57.095Z,3.70
2022-11-22T12:31:38.985Z,3.92
2022-11-22T12:37:17.265Z,3.97
2022-11-22T12:42:51.894Z,3.60
2022-11-22T12:48:34.959Z,3.70
2022-11-22T12:54:12.788Z,4.07
2022-11-22T12:59:45.143Z,3.78
2022-11-22T13:05:23.018Z,3.95
2022-11-22T13:11:03.869Z,3.72
2022-11-22T13:16:35.235Z,4.15
2022-11-22T13:22:43.778Z,3.65
2022-11-22T13:28:18.083Z,3.78
2022-11-22T13:33:55.118Z,4.07
2022-11-22T13:39:26.428Z,4.28
2022-11-22T13:44:57.513Z,4.25
2022-11-22T13:50:40.889Z,4.00
2022-11-22T13:56:20.726Z,4.35
2022-11-22T14:01:52.293Z,4.18
2022-11-22T14:07:33.999Z,4.70
2022-11-22T14:13:20.679Z,4.60
2022-11-22T14:19:07.663Z,4.32
2022-11-22T14:24:47.701Z,4.38
2022-11-22T14:30:23.554Z,4.90
2022-11-22T14:36:06.771Z,4.75
2022-11-22T14:41:37.729Z,4.85
2022-11-22T14:47:13.663Z,5.57
2022-11-22T14:52:47.116Z,5.03
2022-11-22T14:58:28.435Z,4.97
2022-11-22T15:09:12.288Z,4.88
2022-11-22T15:10:26.323Z,5.35
2022-11-22T15:57:54.825Z,4.72
2022-11-22T16:03:26.610Z,5.13
2022-11-22T16:09:02.927Z,5.28
2022-11-22T16:14:44.836Z,4.95
2022-11-22T16:20:26.670Z,4.70
2022-11-22T16:26:17.649Z,5.28
2022-11-22T16:31:48.846Z,4.95
2022-11-22T16:37:37.789Z,5.00
2022-11-22T16:43:18.132Z,5.15
2022-11-22T16:48:49.572Z,5.68
2022-11-22T16:54:21.206Z,5.15
2022-11-22T16:59:54.566Z,5.28
2022-11-22T17:05:25.397Z,5.30
2022-11-22T17:10:56.576Z,5.57
2022-11-22T17:16:27.897Z,5.35
2022-11-22T17:22:00.967Z,5.72
2022-11-22T17:27:32.471Z,6.03
2022-11-22T17:33:03.456Z,6.03
2022-11-22T17:38:34.497Z,5.97
2022-11-22T17:44:05.938Z,5.80
2022-11-22T17:49:36.942Z,5.63
2022-11-22T17:55:13.070Z,6.20
2022-11-22T18:00:45.782Z,5.78
2022-11-22T18:06:18.306Z,6.32
2022-11-22T18:11:49.452Z,6.47
2022-11-22T18:17:21.388Z,6.82
2022-11-22T18:22:52.465Z,6.47
2022-11-22T18:28:23.690Z,5.55
2022-11-22T18:33:54.886Z,6.15
2022-11-22T18:39:26.174Z,5.95
2022-11-22T18:44:57.139Z,6.93
2022-11-22T18:50:28.548Z,7.13
2022-11-22T18:56:04.476Z,6.25
2022-11-22T19:01:38.246Z,6.22
2022-11-22T19:07:10.166Z,6.38
2022-11-22T19:12:41.431Z,6.38
2022-11-22T19:18:13.447Z,6.38
2022-11-22T19:23:44.850Z,6.43
2022-11-22T19:29:16.636Z,5.97
2022-11-22T19:34:47.619Z,7.25
2022-11-22T19:40:18.840Z,6.40
2022-11-22T19:45:50.327Z,7.10
2022-11-22T19:51:22.407Z,6.65
2022-11-22T19:56:53.627Z,7.07
2022-11-22T20:02:24.635Z,6.70
2022-11-22T20:07:55.853Z,6.47
2022-11-22T20:13:26.863Z,7.07
2022-11-22T20:18:59.971Z,7.53
2022-11-22T20:24:31.216Z,7.47
2022-11-22T20:30:02.610Z,7.15
2022-11-22T20:35:33.806Z,7.93
2022-11-22T20:41:06.205Z,7.50
2022-11-22T20:46:37.997Z,7.38
2022-11-22T20:52:10.509Z,7.57
2022-11-22T20:57:41.432Z,7.40
2022-11-22T21:03:12.734Z,7.20
2022-11-22T21:08:45.347Z,7.25
2022-11-22T21:14:16.438Z,7.30
2022-11-22T21:19:47.534Z,6.85
2022-11-22T21:25:18.765Z,6.93
2022-11-22T21:30:58.376Z,7.07
2022-11-22T21:36:29.677Z,7.70
2022-11-22T21:42:00.726Z,6.93
2022-11-22T21:47:32.533Z,6.53
2022-11-22T21:53:03.878Z,7.57
2022-11-22T21:58:34.848Z,6.53
2022-11-22T22:04:05.762Z,7.32
2022-11-22T22:09:36.946Z,7.68
2022-11-22T22:15:10.843Z,6.60
2022-11-22T22:26:16.816Z,7.13
2022-11-22T22:31:48.034Z,6.88
2022-11-22T22:37:19.389Z,7.15
2022-11-22T22:42:50.382Z,7.15
2022-11-22T22:48:22.101Z,6.80
2022-11-22T22:53:53.147Z,6.95
2022-11-22T22:59:24.329Z,7.43
2022-11-22T23:04:55.523Z,6.88
2022-11-22T23:10:26.530Z,7.28
2022-11-22T23:16:03.040Z,6.43
2022-11-22T23:21:34.313Z,7.45
2022-11-22T23:27:05.389Z,7.20
2022-11-22T23:32:36.530Z,6.20
2022-11-22T23:38:07.658Z,6.47
2022-11-22T23:43:39.167Z,7.82
2022-11-22T23:49:10.859Z,7.07
2022-11-22T23:54:41.810Z,6.45
